^^
Saratoga-Weather Station Historical Data
Daily Summary for September 30, 2021 Units:  Metric    English   Both
Daily Weekly Monthly Yearly Custom
  High: Low: Average:
Temperature: 14.1 °C 10.3 °C 11.7 °C
Dew Point: 13 °C 9 °C 10.6 °C
Humidity: 96% 84% 93%
Wind Speed: 11.1km/h 0km/h 2km/h
Wind Gust: 17.7km/h - -
Wind- - ESE
Pressure: 1007.8 hPa 1002.0 hPa -
Precipitation: 11.7 mm    
Historical Graphs
 
 
Tabular Data for September 30, 2021
Time Temperature Dew Point Pressure Wind Wind Speed Wind Gust Humidity Rainfall Rate (Hourly) solar
00:02 11.2 °C 9.3 °C 1007.8 hPa Calm     88% 0.0 mm 0 W/m2
00:07 11.2 °C 9.3 °C 1007.8 hPa Calm     88% 0.0 mm 0 W/m2
00:12 11.2 °C 9.5 °C 1007.8 hPa Calm     89% 0.0 mm 0 W/m2
00:17 11.1 °C 9.4 °C 1007.8 hPa Calm     89% 0.0 mm 0 W/m2
00:22 11.1 °C 9.4 °C 1007.8 hPa Calm     89% 0.0 mm 0 W/m2
00:27 11.1 °C 9.4 °C 1007.8 hPa Calm     89% 0.0 mm 0 W/m2
00:32 11.1 °C 9.4 °C 1007.8 hPa Calm     89% 0.0 mm 0 W/m2
00:37 11 °C 9.3 °C 1007.5 hPa Calm     89% 0.0 mm 0 W/m2
00:42 11 °C 9.3 °C 1007.5 hPa Calm     89% 0.0 mm 0 W/m2
00:47 11 °C 9.4 °C 1007.5 hPa Calm     90% 0.0 mm 0 W/m2
00:52 11 °C 9.4 °C 1007.5 hPa Calm     90% 0.0 mm 0 W/m2
00:57 11 °C 9.4 °C 1007.5 hPa Calm     90% 0.0 mm 0 W/m2
01:02 11 °C 9.4 °C 1007.5 hPa Calm     90% 0.0 mm 0 W/m2
01:07 10.9 °C 9.3 °C 1007.1 hPa Calm     90% 0.0 mm 0 W/m2
01:12 11 °C 9.3 °C 1007.1 hPa Calm     89% 0.0 mm 0 W/m2
01:17 11.1 °C 9.4 °C 1007.1 hPa Calm     89% 0.0 mm 0 W/m2
01:22 11.1 °C 9.4 °C 1007.5 hPa Calm     89% 0.0 mm 0 W/m2
01:27 11.1 °C 9.4 °C 1007.1 hPa Calm     89% 0.0 mm 0 W/m2
01:32 11.1 °C 9.4 °C 1007.1 hPa Calm     89% 0.0 mm 0 W/m2
01:37 11 °C 9.3 °C 1007.1 hPa Calm     89% 0.0 mm 0 W/m2
01:42 11 °C 9.3 °C 1007.1 hPa Calm     89% 0.0 mm 0 W/m2
01:47 10.9 °C 9.3 °C 1007.1 hPa Calm     90% 0.0 mm 0 W/m2
01:52 10.9 °C 9.2 °C 1007.1 hPa Calm     89% 0.0 mm 0 W/m2
01:57 10.8 °C 9.1 °C 1006.8 hPa Calm     89% 0.0 mm 0 W/m2
02:02 10.8 °C 9.1 °C 1007.1 hPa Calm     89% 0.0 mm 0 W/m2
02:07 10.7 °C 9 °C 1007.1 hPa Calm     89% 0.0 mm 0 W/m2
02:12 10.8 °C 9.1 °C 1006.8 hPa ENE 3.2 km/h 4.8 km/h 89% 0.0 mm 0 W/m2
02:17 10.9 °C 9 °C 1007.1 hPa Calm   3.2 km/h 88% 0.0 mm 0 W/m2
02:22 11 °C 9.1 °C 1006.8 hPa Calm   4.8 km/h 88% 0.0 mm 0 W/m2
02:28 10.9 °C 9 °C 1006.8 hPa SE 1.4 km/h 1.6 km/h 88% 0.0 mm 0 W/m2
02:33 10.9 °C 9 °C 1006.8 hPa Calm     88% 0.0 mm 0 W/m2
02:38 10.9 °C 9 °C 1006.8 hPa Calm     88% 0.0 mm 0 W/m2
02:43 10.8 °C 9.1 °C 1006.8 hPa Calm     89% 0.0 mm 0 W/m2
02:48 10.8 °C 9.1 °C 1006.8 hPa Calm     89% 0.0 mm 0 W/m2
02:53 10.7 °C 9 °C 1006.4 hPa SE 1.4 km/h 1.6 km/h 89% 0.0 mm 0 W/m2
02:58 10.7 °C 9 °C 1006.4 hPa SE 1.4 km/h 3.2 km/h 89% 0.0 mm 0 W/m2
03:03 10.7 °C 9 °C 1006.4 hPa NNE 1.4 km/h 3.2 km/h 89% 0.0 mm 0 W/m2
03:08 10.7 °C 9 °C 1006.4 hPa Calm   4.8 km/h 89% 0.0 mm 0 W/m2
03:13 10.8 °C 9.2 °C 1006.4 hPa Calm     90% 0.0 mm 0 W/m2
03:18 10.8 °C 9.2 °C 1006.4 hPa Calm     90% 0.0 mm 0 W/m2
03:23 10.8 °C 9.2 °C 1006.4 hPa Calm     90% 0.0 mm 0 W/m2
03:28 10.8 °C 9.2 °C 1006.4 hPa Calm     90% 0.0 mm 0 W/m2
03:33 10.8 °C 9.2 °C 1006.4 hPa ENE 3.2 km/h 9.7 km/h 90% 0.0 mm 0 W/m2
03:38 11.3 °C 9.2 °C 1006.1 hPa ENE 4.7 km/h 8 km/h 87% 0.0 mm 0 W/m2
03:43 11.6 °C 9.3 °C 1006.1 hPa SE 1.4 km/h 9.7 km/h 86% 0.0 mm 0 W/m2
03:48 11.7 °C 9.3 °C 1006.1 hPa Calm   4.8 km/h 85% 0.0 mm 0 W/m2
03:53 11.7 °C 9.3 °C 1006.4 hPa NNE 1.4 km/h 4.8 km/h 85% 0.0 mm 0 W/m2
03:58 11.7 °C 9.3 °C 1006.4 hPa Calm   1.6 km/h 85% 0.0 mm 0 W/m2
04:03 11.8 °C 9.4 °C 1006.1 hPa ENE 1.4 km/h 3.2 km/h 85% 0.0 mm 0 W/m2
04:08 11.8 °C 9.4 °C 1006.1 hPa ENE 4.7 km/h 4.8 km/h 85% 0.0 mm 0 W/m2
04:13 12 °C 9.4 °C 1006.1 hPa East 1.4 km/h 4.8 km/h 84% 0.0 mm 0 W/m2
04:18 12.1 °C 9.5 °C 1006.1 hPa ENE 3.2 km/h 4.8 km/h 84% 0.0 mm 0 W/m2
04:23 12 °C 9.6 °C 1005.8 hPa Calm     85% 0.0 mm 0 W/m2
04:28 11.8 °C 9.7 °C 1005.8 hPa Calm   3.2 km/h 87% 0.0 mm 0 W/m2
04:33 11.7 °C 9.6 °C 1005.8 hPa NE 1.4 km/h 3.2 km/h 87% 0.2 mm 0 W/m2
04:38 11.5 °C 9.6 °C 1005.8 hPa NE 3.2 km/h 4.8 km/h 88% 0.2 mm 0 W/m2
04:43 11.4 °C 9.7 °C 1005.4 hPa Calm     89% 0.2 mm 0 W/m2
04:48 11.3 °C 9.7 °C 1005.4 hPa Calm   4.8 km/h 90% 0.2 mm 0 W/m2
04:53 11.2 °C 9.6 °C 1005.1 hPa Calm   1.6 km/h 90% 0.2 mm 0 W/m2
04:58 11.1 °C 9.7 °C 1005.1 hPa Calm     91% 0.2 mm 0 W/m2
05:03 10.9 °C 9.5 °C 1005.1 hPa Calm     91% 0.2 mm 0 W/m2
05:08 10.8 °C 9.6 °C 1005.1 hPa Calm     92% 0.2 mm 0 W/m2
05:13 10.8 °C 9.6 °C 1005.1 hPa Calm     92% 0.2 mm 0 W/m2
05:18 10.7 °C 9.5 °C 1005.1 hPa Calm     92% 0.5 mm 0 W/m2
05:23 10.6 °C 9.5 °C 1004.7 hPa Calm     93% 0.5 mm 0 W/m2
05:28 10.6 °C 9.5 °C 1004.7 hPa Calm     93% 0.5 mm 0 W/m2
05:33 10.5 °C 9.4 °C 1004.7 hPa Calm     93% 0.5 mm 0 W/m2
05:38 10.5 °C 9.4 °C 1004.7 hPa Calm     93% 0.5 mm 0 W/m2
05:43 10.4 °C 9.5 °C 1004.7 hPa Calm     94% 0.5 mm 0 W/m2
05:48 10.4 °C 9.5 °C 1004.7 hPa Calm   1.6 km/h 94% 0.5 mm 0 W/m2
05:53 10.4 °C 9.5 °C 1004.7 hPa Calm     94% 0.5 mm 0 W/m2
05:58 10.3 °C 9.4 °C 1004.7 hPa Calm   3.2 km/h 94% 0.5 mm 0 W/m2
06:03 10.3 °C 9.4 °C 1004.7 hPa SE 3.2 km/h 6.4 km/h 94% 0.5 mm 0 W/m2
06:08 10.4 °C 9.5 °C 1004.7 hPa Calm     94% 0.5 mm 0 W/m2
06:13 10.4 °C 9.5 °C 1004.7 hPa SSE 1.4 km/h 4.8 km/h 94% 0.5 mm 0 W/m2
06:18 10.4 °C 9.5 °C 1004.7 hPa Calm   1.6 km/h 94% 0.5 mm 0 W/m2
06:23 10.3 °C 9.4 °C 1004.7 hPa Calm   1.6 km/h 94% 0.5 mm 0 W/m2
06:28 10.4 °C 9.5 °C 1004.7 hPa South 1.4 km/h 3.2 km/h 94% 0.5 mm 0 W/m2
06:33 10.3 °C 9.5 °C 1004.7 hPa Calm   1.6 km/h 95% 0.2 mm 0 W/m2
06:38 10.3 °C 9.5 °C 1004.4 hPa Calm   3.2 km/h 95% 0.2 mm 0 W/m2
06:43 10.3 °C 9.5 °C 1004.4 hPa Calm   3.2 km/h 95% 0.5 mm 0 W/m2
06:48 10.3 °C 9.5 °C 1004.4 hPa East 4.7 km/h 4.8 km/h 95% 0.5 mm 0 W/m2
06:53 10.4 °C 9.6 °C 1004.4 hPa ENE 1.4 km/h 6.4 km/h 95% 0.5 mm 0 W/m2
06:58 10.6 °C 9.8 °C 1004.1 hPa ENE 3.2 km/h 4.8 km/h 95% 0.5 mm 0 W/m2
07:03 10.8 °C 9.9 °C 1004.4 hPa ENE 4.7 km/h 4.8 km/h 94% 0.5 mm 0 W/m2
07:08 10.9 °C 9.8 °C 1004.1 hPa ENE 4.7 km/h 9.7 km/h 93% 0.5 mm 0 W/m2
07:13 11.1 °C 10 °C 1004.1 hPa SE 3.2 km/h 9.7 km/h 93% 0.5 mm 0 W/m2
07:18 11.1 °C 9.8 °C 1004.1 hPa East 4.7 km/h 9.7 km/h 92% 0.5 mm 0 W/m2
07:23 11.2 °C 9.9 °C 1004.1 hPa East 11.1 km/h 12.9 km/h 92% 0.5 mm 0 W/m2
07:28 11.3 °C 9.9 °C 1004.4 hPa East 7.9 km/h 8 km/h 91% 0.5 mm 0 W/m2
07:33 11.3 °C 9.9 °C 1004.4 hPa East 4.7 km/h 14.5 km/h 91% 0.8 mm 0 W/m2
07:38 11.2 °C 9.8 °C 1004.1 hPa SE 4.7 km/h 4.8 km/h 91% 0.8 mm 0 W/m2
07:43 11.2 °C 9.8 °C 1004.1 hPa NE 6.4 km/h 14.5 km/h 91% 0.8 mm 0 W/m2
07:48 11.1 °C 9.8 °C 1004.1 hPa ESE 3.2 km/h 4.8 km/h 92% 0.8 mm 0 W/m2
07:53 11.1 °C 9.8 °C 1004.1 hPa East 1.4 km/h 3.2 km/h 92% 1.0 mm 0 W/m2
07:58 11 °C 9.8 °C 1004.1 hPa NE 3.2 km/h 8 km/h 92% 1.3 mm 0 W/m2
08:03 10.9 °C 9.7 °C 1004.1 hPa ENE 1.4 km/h 8 km/h 92% 1.5 mm 0 W/m2
08:09 10.9 °C 9.8 °C 1004.1 hPa ENE 3.2 km/h 8 km/h 93% 1.5 mm 0 W/m2
08:14 10.8 °C 9.7 °C 1004.4 hPa NE 4.7 km/h 6.4 km/h 93% 1.5 mm 0 W/m2
08:19 10.8 °C 9.7 °C 1004.1 hPa NE 1.4 km/h 6.4 km/h 93% 1.5 mm 0 W/m2
08:24 10.8 °C 9.7 °C 1004.1 hPa East 3.2 km/h 8 km/h 93% 1.5 mm 0 W/m2
08:29 10.8 °C 9.7 °C 1004.1 hPa ESE 3.2 km/h 8 km/h 93% 1.5 mm 0 W/m2
08:34 10.9 °C 9.8 °C 1004.1 hPa NE 1.4 km/h 9.7 km/h 93% 1.3 mm 0 W/m2
08:39 10.9 °C 9.8 °C 1004.1 hPa ENE 3.2 km/h 9.7 km/h 93% 1.3 mm 0 W/m2
08:44 10.9 °C 9.7 °C 1004.1 hPa East 4.7 km/h 6.4 km/h 92% 1.0 mm 0 W/m2
08:49 10.9 °C 9.7 °C 1004.1 hPa ENE 3.2 km/h 12.9 km/h 92% 1.0 mm 0 W/m2
08:54 10.9 °C 9.7 °C 1004.1 hPa East 4.7 km/h 11.3 km/h 92% 1.0 mm 0 W/m2
08:59 10.8 °C 9.6 °C 1004.1 hPa East 6.4 km/h 11.3 km/h 92% 0.8 mm 0 W/m2
09:04 10.8 °C 9.6 °C 1004.1 hPa NE 4.7 km/h 6.4 km/h 92% 0.5 mm 5 W/m2
09:09 10.8 °C 9.7 °C 1004.1 hPa NE 3.2 km/h 9.7 km/h 93% 0.5 mm 0 W/m2
09:14 10.8 °C 9.7 °C 1004.1 hPa East 1.4 km/h 4.8 km/h 93% 0.8 mm 7 W/m2
09:19 10.7 °C 9.6 °C 1004.1 hPa ENE 1.4 km/h 9.7 km/h 93% 0.5 mm 5 W/m2
09:24 10.7 °C 9.6 °C 1004.1 hPa East 1.4 km/h 4.8 km/h 93% 0.5 mm 7 W/m2
09:29 10.7 °C 9.6 °C 1004.1 hPa Calm     93% 0.5 mm 7 W/m2
09:34 10.7 °C 9.8 °C 1004.1 hPa Calm   4.8 km/h 94% 0.5 mm 11 W/m2
09:39 10.7 °C 9.8 °C 1004.1 hPa Calm     94% 0.8 mm 9 W/m2
09:44 10.7 °C 9.8 °C 1004.1 hPa East 1.4 km/h 1.6 km/h 94% 0.8 mm 9 W/m2
09:49 10.7 °C 9.8 °C 1004.1 hPa Calm   4.8 km/h 94% 1.0 mm 14 W/m2
09:54 10.7 °C 9.8 °C 1004.1 hPa East 1.4 km/h 1.6 km/h 94% 0.8 mm 21 W/m2
09:59 10.6 °C 9.8 °C 1004.1 hPa Calm   4.8 km/h 95% 0.8 mm 19 W/m2
10:04 10.6 °C 9.7 °C 1004.1 hPa East 3.2 km/h 4.8 km/h 94% 0.8 mm 18 W/m2
10:09 10.6 °C 9.8 °C 1004.1 hPa Calm   1.6 km/h 95% 1.0 mm 12 W/m2
10:14 10.6 °C 9.8 °C 1004.1 hPa Calm   4.8 km/h 95% 1.0 mm 7 W/m2
10:19 10.6 °C 9.8 °C 1004.1 hPa Calm     95% 1.3 mm 9 W/m2
10:24 10.6 °C 9.8 °C 1004.1 hPa Calm     95% 1.5 mm 12 W/m2
10:29 10.6 °C 9.8 °C 1004.1 hPa Calm   3.2 km/h 95% 1.5 mm 11 W/m2
10:34 10.6 °C 9.8 °C 1004.1 hPa Calm     95% 1.5 mm 11 W/m2
10:39 10.6 °C 9.8 °C 1003.7 hPa Calm     95% 1.5 mm 19 W/m2
10:44 10.6 °C 9.8 °C 1003.7 hPa East 1.4 km/h 3.2 km/h 95% 1.5 mm 19 W/m2
10:49 10.6 °C 9.8 °C 1003.7 hPa NE 1.4 km/h 3.2 km/h 95% 1.5 mm 14 W/m2
10:54 10.6 °C 10 °C 1003.7 hPa NE 3.2 km/h 3.2 km/h 96% 1.8 mm 16 W/m2
10:59 10.7 °C 10.1 °C 1003.7 hPa ENE 1.4 km/h 4.8 km/h 96% 2.0 mm 18 W/m2
11:04 10.7 °C 10.1 °C 1003.7 hPa ENE 1.4 km/h 6.4 km/h 96% 2.0 mm 16 W/m2
11:09 10.7 °C 10.1 °C 1003.7 hPa East 4.7 km/h 4.8 km/h 96% 2.3 mm 16 W/m2
11:14 10.7 °C 10.1 °C 1003.7 hPa NE 1.4 km/h 9.7 km/h 96% 2.3 mm 18 W/m2
11:19 10.7 °C 10.1 °C 1003.7 hPa ENE 3.2 km/h 4.8 km/h 96% 2.3 mm 19 W/m2
11:24 10.7 °C 10.1 °C 1003.4 hPa Calm   9.7 km/h 96% 2.3 mm 23 W/m2
11:29 10.7 °C 10.1 °C 1003.7 hPa East 4.7 km/h 11.3 km/h 96% 2.5 mm 25 W/m2
11:34 10.7 °C 10.1 °C 1003.4 hPa NE 3.2 km/h 6.4 km/h 96% 2.5 mm 26 W/m2
11:39 10.7 °C 10.1 °C 1003.4 hPa ENE 3.2 km/h 11.3 km/h 96% 2.8 mm 25 W/m2
11:44 10.7 °C 10.1 °C 1003.4 hPa NE 3.2 km/h 3.2 km/h 96% 3.0 mm 30 W/m2
11:49 10.7 °C 10.1 °C 1003.7 hPa East 6.4 km/h 6.4 km/h 96% 2.8 mm 26 W/m2
11:54 10.7 °C 10.1 °C 1003.7 hPa East 3.2 km/h 4.8 km/h 96% 2.8 mm 26 W/m2
11:59 10.7 °C 10.1 °C 1003.7 hPa East 1.4 km/h 3.2 km/h 96% 2.5 mm 35 W/m2
12:04 10.7 °C 10.1 °C 1003.7 hPa East 1.4 km/h 4.8 km/h 96% 2.5 mm 30 W/m2
12:09 10.7 °C 10.1 °C 1003.7 hPa Calm     96% 2.3 mm 23 W/m2
12:14 10.8 °C 10.2 °C 1003.7 hPa Calm   3.2 km/h 96% 2.0 mm 18 W/m2
12:19 10.8 °C 10.2 °C 1003.7 hPa East 3.2 km/h 4.8 km/h 96% 2.3 mm 19 W/m2
12:24 10.8 °C 10.2 °C 1003.7 hPa Calm   1.6 km/h 96% 2.0 mm 25 W/m2
12:29 10.8 °C 10.2 °C 1003.7 hPa Calm   4.8 km/h 96% 2.3 mm 21 W/m2
12:34 10.8 °C 10.2 °C 1003.7 hPa Calm   1.6 km/h 96% 2.3 mm 21 W/m2
12:39 10.8 °C 10.2 °C 1003.7 hPa Calm     96% 2.0 mm 25 W/m2
12:44 10.8 °C 10.2 °C 1003.4 hPa ENE 1.4 km/h 3.2 km/h 96% 2.3 mm 25 W/m2
12:49 10.8 °C 10.2 °C 1003.7 hPa Calm     96% 2.3 mm 19 W/m2
12:54 10.8 °C 10.2 °C 1003.4 hPa Calm     96% 2.3 mm 19 W/m2
12:59 10.8 °C 10.2 °C 1003.4 hPa Calm     96% 2.3 mm 14 W/m2
13:04 10.8 °C 10.2 °C 1003.4 hPa ENE 1.4 km/h 3.2 km/h 96% 2.3 mm 14 W/m2
13:09 10.7 °C 10.1 °C 1003.4 hPa Calm   1.6 km/h 96% 2.0 mm 16 W/m2
13:14 10.7 °C 10.1 °C 1003.4 hPa East 1.4 km/h 3.2 km/h 96% 2.0 mm 18 W/m2
13:19 10.7 °C 10.1 °C 1003.0 hPa ESE 3.2 km/h 4.8 km/h 96% 1.8 mm 25 W/m2
13:24 10.7 °C 10.1 °C 1003.0 hPa East 1.4 km/h 3.2 km/h 96% 1.5 mm 33 W/m2
13:29 10.7 °C 10.1 °C 1003.0 hPa ENE 1.4 km/h 3.2 km/h 96% 1.5 mm 30 W/m2
13:34 10.8 °C 10.2 °C 1003.0 hPa ENE 1.4 km/h 3.2 km/h 96% 1.3 mm 46 W/m2
13:39 10.8 °C 10.2 °C 1003.0 hPa East 1.4 km/h 4.8 km/h 96% 1.0 mm 42 W/m2
13:44 10.8 °C 10.2 °C 1002.7 hPa East 6.4 km/h 8 km/h 96% 0.5 mm 42 W/m2
13:49 10.8 °C 10.2 °C 1003.0 hPa SE 1.4 km/h 8 km/h 96% 0.5 mm 35 W/m2
13:54 10.8 °C 10.2 °C 1002.7 hPa ENE 3.2 km/h 6.4 km/h 96% 0.2 mm 40 W/m2
13:59 10.8 °C 10.2 °C 1002.7 hPa East 1.4 km/h 6.4 km/h 96% 0.2 mm 42 W/m2
14:04 10.8 °C 10.2 °C 1002.7 hPa ESE 6.4 km/h 9.7 km/h 96% 0.2 mm 28 W/m2
14:09 10.8 °C 10.2 °C 1002.7 hPa East 3.2 km/h 8 km/h 96% 0.2 mm 33 W/m2
14:14 10.8 °C 10.2 °C 1002.7 hPa ENE 4.7 km/h 8 km/h 96% 0.2 mm 46 W/m2
14:19 10.9 °C 10.3 °C 1002.7 hPa East 4.7 km/h 4.8 km/h 96% 0.0 mm 35 W/m2
14:24 10.9 °C 10.3 °C 1002.7 hPa East 1.4 km/h 3.2 km/h 96% 0.0 mm 46 W/m2
14:29 10.9 °C 10.3 °C 1002.7 hPa SE 6.4 km/h 11.3 km/h 96% 0.0 mm 33 W/m2
14:34 11 °C 10.4 °C 1002.7 hPa South 1.4 km/h 9.7 km/h 96% 0.0 mm 33 W/m2
14:39 11.1 °C 10.5 °C 1002.7 hPa ESE 9.7 km/h 9.7 km/h 96% 0.0 mm 30 W/m2
14:44 11.1 °C 10.5 °C 1002.7 hPa East 7.9 km/h 8 km/h 96% 0.0 mm 46 W/m2
14:49 11.2 °C 10.6 °C 1002.4 hPa ESE 6.4 km/h 12.9 km/h 96% 0.0 mm 69 W/m2
14:54 11.2 °C 10.6 °C 1002.4 hPa NNE 3.2 km/h 14.5 km/h 96% 0.0 mm 46 W/m2
14:59 11.2 °C 10.6 °C 1002.4 hPa ENE 6.4 km/h 11.3 km/h 96% 0.0 mm 54 W/m2
15:04 11.2 °C 10.6 °C 1002.4 hPa ESE 4.7 km/h 14.5 km/h 96% 0.0 mm 69 W/m2
15:09 11.3 °C 10.7 °C 1002.0 hPa ENE 1.4 km/h 8 km/h 96% 0.0 mm 70 W/m2
15:14 11.3 °C 10.7 °C 1002.0 hPa SE 4.7 km/h 9.7 km/h 96% 0.0 mm 65 W/m2
15:19 11.4 °C 10.6 °C 1002.0 hPa East 4.7 km/h 9.7 km/h 95% 0.0 mm 39 W/m2
15:24 11.4 °C 10.6 °C 1002.0 hPa East 7.9 km/h 12.9 km/h 95% 0.0 mm 60 W/m2
15:29 11.4 °C 10.6 °C 1002.0 hPa East 7.9 km/h 11.3 km/h 95% 0.0 mm 120 W/m2
15:34 11.6 °C 11 °C 1002.0 hPa ENE 1.4 km/h 8 km/h 96% 0.0 mm 35 W/m2
15:39 11.6 °C 10.8 °C 1002.0 hPa ENE 3.2 km/h 9.7 km/h 95% 0.0 mm 35 W/m2
15:44 11.6 °C 10.8 °C 1002.0 hPa East 6.4 km/h 9.7 km/h 95% 0.0 mm 49 W/m2
15:49 11.7 °C 10.9 °C 1002.0 hPa ESE 3.2 km/h 6.4 km/h 95% 0.0 mm 39 W/m2
15:54 11.7 °C 10.9 °C 1002.0 hPa ENE 3.2 km/h 11.3 km/h 95% 0.0 mm 53 W/m2
15:59 11.7 °C 10.9 °C 1002.0 hPa ENE 4.7 km/h 11.3 km/h 95% 0.0 mm 40 W/m2
16:05 11.8 °C 11 °C 1002.0 hPa ENE 6.4 km/h 11.3 km/h 95% 0.0 mm 46 W/m2
16:10 11.8 °C 11 °C 1002.0 hPa ENE 4.7 km/h 9.7 km/h 95% 0.0 mm 42 W/m2
16:15 11.9 °C 11.1 °C 1002.0 hPa ENE 3.2 km/h 4.8 km/h 95% 0.0 mm 39 W/m2
16:20 11.9 °C 11.1 °C 1002.0 hPa NE 6.4 km/h 8 km/h 95% 0.0 mm 49 W/m2
16:25 12.1 °C 11.3 °C 1002.0 hPa ESE 3.2 km/h 6.4 km/h 95% 0.0 mm 46 W/m2
16:30 12.1 °C 11.3 °C 1002.4 hPa Calm   4.8 km/h 95% 0.0 mm 39 W/m2
16:35 12.2 °C 11.4 °C 1002.4 hPa ENE 4.7 km/h 6.4 km/h 95% 0.0 mm 39 W/m2
16:40 12.3 °C 11.4 °C 1002.4 hPa NNW 1.4 km/h 3.2 km/h 94% 0.0 mm 54 W/m2
16:45 12.4 °C 11.6 °C 1002.4 hPa Calm   4.8 km/h 95% 0.0 mm 28 W/m2
16:50 12.5 °C 11.6 °C 1002.4 hPa ESE 1.4 km/h 6.4 km/h 94% 0.0 mm 40 W/m2
16:55 12.6 °C 11.7 °C 1002.4 hPa NNE 1.4 km/h 6.4 km/h 94% 0.0 mm 33 W/m2
17:00 12.7 °C 11.8 °C 1002.4 hPa NNE 3.2 km/h 4.8 km/h 94% 0.0 mm 51 W/m2
17:05 12.8 °C 11.9 °C 1002.4 hPa ENE 1.4 km/h 4.8 km/h 94% 0.0 mm 56 W/m2
17:10 12.8 °C 11.7 °C 1002.4 hPa North 6.4 km/h 6.4 km/h 93% 0.0 mm 40 W/m2
17:15 12.9 °C 11.8 °C 1002.4 hPa ENE 4.7 km/h 6.4 km/h 93% 0.0 mm 25 W/m2
17:20 13 °C 11.9 °C 1002.4 hPa NNE 1.4 km/h 8 km/h 93% 0.0 mm 23 W/m2
17:25 13.1 °C 12 °C 1002.4 hPa Calm   4.8 km/h 93% 0.0 mm 5 W/m2
17:30 13.1 °C 12 °C 1002.7 hPa NNE 4.7 km/h 8 km/h 93% 0.0 mm 11 W/m2
17:35 13.1 °C 11.8 °C 1002.7 hPa NE 3.2 km/h 6.4 km/h 92% 0.0 mm 11 W/m2
17:40 13.1 °C 11.8 °C 1002.7 hPa NE 1.4 km/h 4.8 km/h 92% 0.0 mm 19 W/m2
17:45 13.1 °C 11.8 °C 1002.7 hPa NNW 1.4 km/h 3.2 km/h 92% 0.0 mm 16 W/m2
17:50 13.2 °C 11.9 °C 1002.7 hPa NNE 6.4 km/h 11.3 km/h 92% 0.0 mm 12 W/m2
17:55 13.2 °C 11.9 °C 1002.7 hPa ENE 1.4 km/h 11.3 km/h 92% 0.0 mm 11 W/m2
18:00 13.2 °C 11.9 °C 1002.7 hPa NE 1.4 km/h 4.8 km/h 92% 0.0 mm 7 W/m2
18:05 13.2 °C 11.9 °C 1003.0 hPa NE 3.2 km/h 6.4 km/h 92% 0.0 mm 0 W/m2
18:10 13.2 °C 11.9 °C 1003.0 hPa NW 9.7 km/h 9.7 km/h 92% 0.0 mm 0 W/m2
18:15 13.2 °C 11.9 °C 1003.0 hPa NW 3.2 km/h 6.4 km/h 92% 0.0 mm 0 W/m2
18:20 13.2 °C 11.9 °C 1003.0 hPa NNE 3.2 km/h 6.4 km/h 92% 0.0 mm 0 W/m2
18:25 13.2 °C 11.9 °C 1003.0 hPa NNW 3.2 km/h 6.4 km/h 92% 0.0 mm 0 W/m2
18:30 13.2 °C 11.9 °C 1003.0 hPa ENE 1.4 km/h 4.8 km/h 92% 0.0 mm 0 W/m2
18:35 13.2 °C 12.1 °C 1003.0 hPa North 1.4 km/h 8 km/h 93% 0.0 mm 0 W/m2
18:40 13.2 °C 12.1 °C 1003.4 hPa North 3.2 km/h 8 km/h 93% 0.0 mm 0 W/m2
18:45 13.2 °C 12.1 °C 1003.4 hPa NNE 3.2 km/h 4.8 km/h 93% 0.0 mm 0 W/m2
18:50 13.2 °C 12.1 °C 1003.4 hPa NE 4.7 km/h 4.8 km/h 93% 0.0 mm 0 W/m2
18:55 13.2 °C 12.1 °C 1003.4 hPa NW 1.4 km/h 17.7 km/h 93% 0.2 mm 0 W/m2
19:00 13.2 °C 12.1 °C 1003.7 hPa Calm   11.3 km/h 93% 0.5 mm 0 W/m2
19:05 13.1 °C 12 °C 1003.7 hPa WNW 1.4 km/h 17.7 km/h 93% 0.5 mm 0 W/m2
19:10 13.1 °C 12.2 °C 1003.7 hPa NNE 3.2 km/h 6.4 km/h 94% 0.5 mm 0 W/m2
19:15 13.2 °C 12.3 °C 1003.7 hPa SSW 1.4 km/h 4.8 km/h 94% 0.5 mm 0 W/m2
19:20 13.1 °C 12.2 °C 1003.7 hPa West 3.2 km/h 4.8 km/h 94% 0.5 mm 0 W/m2
19:25 13.1 °C 12.2 °C 1003.7 hPa NE 3.2 km/h 8 km/h 94% 0.5 mm 0 W/m2
19:30 13.1 °C 12.2 °C 1004.1 hPa NW 1.4 km/h 4.8 km/h 94% 0.5 mm 0 W/m2
19:35 13.2 °C 12.3 °C 1004.1 hPa Calm   8 km/h 94% 0.5 mm 0 W/m2
19:40 13.1 °C 12.2 °C 1004.1 hPa Calm   3.2 km/h 94% 0.5 mm 0 W/m2
19:45 13.1 °C 12.2 °C 1004.1 hPa NW 3.2 km/h 4.8 km/h 94% 0.5 mm 0 W/m2
19:50 13.1 °C 12.2 °C 1004.1 hPa North 3.2 km/h 6.4 km/h 94% 0.5 mm 0 W/m2
19:55 13.1 °C 12.2 °C 1004.1 hPa NNE 4.7 km/h 4.8 km/h 94% 0.2 mm 0 W/m2
20:00 13.1 °C 12.2 °C 1004.4 hPa NE 3.2 km/h 3.2 km/h 94% 0.0 mm 0 W/m2
20:05 13.1 °C 12.2 °C 1004.4 hPa Calm   4.8 km/h 94% 0.0 mm 0 W/m2
20:10 13.1 °C 12.2 °C 1004.4 hPa East 1.4 km/h 4.8 km/h 94% 0.0 mm 0 W/m2
20:15 13.1 °C 12.2 °C 1004.4 hPa North 3.2 km/h 3.2 km/h 94% 0.0 mm 0 W/m2
20:20 13.1 °C 12.2 °C 1004.7 hPa Calm   3.2 km/h 94% 0.0 mm 0 W/m2
20:25 13.1 °C 12.2 °C 1004.7 hPa NNE 3.2 km/h 4.8 km/h 94% 0.0 mm 0 W/m2
20:30 13.1 °C 12.2 °C 1004.7 hPa NE 4.7 km/h 4.8 km/h 94% 0.0 mm 0 W/m2
20:35 13.1 °C 12.2 °C 1004.7 hPa Calm   3.2 km/h 94% 0.0 mm 0 W/m2
20:40 13.1 °C 12.2 °C 1004.7 hPa Calm   1.6 km/h 94% 0.0 mm 0 W/m2
20:45 13.1 °C 12.2 °C 1004.7 hPa East 1.4 km/h 6.4 km/h 94% 0.0 mm 0 W/m2
20:50 13.2 °C 12.3 °C 1004.7 hPa Calm   3.2 km/h 94% 0.0 mm 0 W/m2
20:55 13.3 °C 12.4 °C 1004.7 hPa Calm   6.4 km/h 94% 0.0 mm 0 W/m2
21:01 13.3 °C 12.4 °C 1004.7 hPa ENE 3.2 km/h 3.2 km/h 94% 0.0 mm 0 W/m2
21:06 13.3 °C 12.4 °C 1004.7 hPa NNW 3.2 km/h 3.2 km/h 94% 0.0 mm 0 W/m2
21:11 13.4 °C 12.5 °C 1005.1 hPa ENE 1.4 km/h 8 km/h 94% 0.0 mm 0 W/m2
21:16 13.4 °C 12.5 °C 1005.1 hPa East 1.4 km/h 1.6 km/h 94% 0.0 mm 0 W/m2
21:21 13.4 °C 12.5 °C 1005.1 hPa NE 1.4 km/h 8 km/h 94% 0.0 mm 0 W/m2
21:26 13.4 °C 12.5 °C 1005.1 hPa ENE 6.4 km/h 6.4 km/h 94% 0.0 mm 0 W/m2
21:31 13.3 °C 12.4 °C 1005.1 hPa ENE 3.2 km/h 6.4 km/h 94% 0.0 mm 0 W/m2
21:36 13.3 °C 12.4 °C 1005.1 hPa ENE 3.2 km/h 6.4 km/h 94% 0.0 mm 0 W/m2
21:41 13.3 °C 12.4 °C 1005.1 hPa ENE 4.7 km/h 8 km/h 94% 0.0 mm 0 W/m2
21:46 13.3 °C 12.4 °C 1005.4 hPa ENE 4.7 km/h 4.8 km/h 94% 0.0 mm 0 W/m2
21:51 13.3 °C 12.4 °C 1005.4 hPa NNE 1.4 km/h 4.8 km/h 94% 0.0 mm 0 W/m2
21:56 13.5 °C 12.6 °C 1005.4 hPa ENE 3.2 km/h 6.4 km/h 94% 0.0 mm 0 W/m2
22:01 13.6 °C 12.7 °C 1005.4 hPa Calm   3.2 km/h 94% 0.0 mm 0 W/m2
22:06 13.7 °C 12.8 °C 1005.8 hPa NW 1.4 km/h 8 km/h 94% 0.0 mm 0 W/m2
22:11 13.7 °C 12.8 °C 1005.4 hPa ENE 4.7 km/h 6.4 km/h 94% 0.0 mm 0 W/m2
22:16 13.8 °C 12.9 °C 1005.8 hPa WSW 1.4 km/h 12.9 km/h 94% 0.0 mm 0 W/m2
22:21 13.9 °C 12.9 °C 1005.8 hPa NNW 3.2 km/h 8 km/h 94% 0.0 mm 0 W/m2
22:26 14 °C 12.9 °C 1005.8 hPa Calm     93% 0.0 mm 0 W/m2
22:31 14 °C 12.9 °C 1005.8 hPa NW 1.4 km/h 4.8 km/h 93% 0.0 mm 0 W/m2
22:36 14 °C 12.9 °C 1005.8 hPa NW 1.4 km/h 3.2 km/h 93% 0.0 mm 0 W/m2
22:41 14 °C 12.9 °C 1006.1 hPa ENE 3.2 km/h 6.4 km/h 93% 0.0 mm 0 W/m2
22:46 14.1 °C 13 °C 1006.1 hPa NNW 3.2 km/h 6.4 km/h 93% 0.0 mm 0 W/m2
22:51 14.1 °C 13 °C 1006.1 hPa North 1.4 km/h 3.2 km/h 93% 0.0 mm 0 W/m2
22:56 14.1 °C 13 °C 1006.1 hPa North 1.4 km/h 3.2 km/h 93% 0.0 mm 0 W/m2
23:01 14.1 °C 13 °C 1006.1 hPa WNW 3.2 km/h 6.4 km/h 93% 0.0 mm 0 W/m2
23:06 14.1 °C 13 °C 1006.4 hPa West 1.4 km/h 3.2 km/h 93% 0.0 mm 0 W/m2
23:11 14.1 °C 13 °C 1006.4 hPa Calm   6.4 km/h 93% 0.0 mm 0 W/m2
23:16 14.1 °C 13 °C 1006.4 hPa Calm     93% 0.0 mm 0 W/m2
23:21 14 °C 12.9 °C 1006.4 hPa Calm     93% 0.0 mm 0 W/m2
23:26 13.9 °C 12.8 °C 1006.4 hPa Calm     93% 0.0 mm 0 W/m2
23:31 13.9 °C 12.8 °C 1006.4 hPa Calm     93% 0.0 mm 0 W/m2
23:36 13.8 °C 12.7 °C 1006.4 hPa Calm   1.6 km/h 93% 0.0 mm 0 W/m2
23:41 13.8 °C 12.9 °C 1006.4 hPa Calm   4.8 km/h 94% 0.2 mm 0 W/m2
23:46 13.8 °C 12.9 °C 1006.4 hPa ENE 1.4 km/h 3.2 km/h 94% 0.2 mm 0 W/m2
23:56 13.7 °C 12.8 °C 1006.8 hPa Calm   1.6 km/h 94% 0.5 mm 0 W/m2
Juneau County Weather
Compliments of Weather Underground - 4 mb